createdAt,value
2022-09-11T00:01:35.378Z,33.20
2022-09-11T00:04:03.213Z,32.67
2022-09-11T00:06:31.165Z,32.03
2022-09-11T00:09:01.971Z,33.50
2022-09-11T00:11:42.687Z,35.33
2022-09-11T00:14:13.926Z,33.20
2022-09-11T00:16:45.046Z,36.65
2022-09-11T00:19:18.849Z,32.75
2022-09-11T00:21:46.491Z,37.65
2022-09-11T00:24:13.413Z,38.13
2022-09-11T00:26:42.491Z,38.67
2022-09-11T00:29:10.218Z,40.10
2022-09-11T00:31:37.697Z,39.85
2022-09-11T00:34:05.077Z,39.05
2022-09-11T00:36:32.401Z,40.03
2022-09-11T00:38:59.829Z,36.33
2022-09-11T00:41:31.945Z,36.40
2022-09-11T00:44:05.092Z,37.63
2022-09-11T00:46:47.838Z,36.70
2022-09-11T00:49:28.197Z,36.38
2022-09-11T00:52:15.093Z,39.65
2022-09-11T00:54:52.419Z,38.33
2022-09-11T00:57:25.828Z,41.22
2022-09-11T00:59:55.912Z,41.15
2022-09-11T01:02:27.595Z,40.20
2022-09-11T01:04:56.812Z,37.00
2022-09-11T01:07:26.151Z,73.68
2022-09-11T01:09:54.226Z,31.58
2022-09-11T01:13:09.906Z,29.52
2022-09-11T01:15:53.736Z,23.77
2022-09-11T01:18:28.625Z,25.00
2022-09-11T01:21:23.647Z,28.63
2022-09-11T01:24:05.276Z,32.30
2022-09-11T01:26:50.206Z,36.53
2022-09-11T01:29:59.827Z,33.00
2022-09-11T01:32:43.636Z,32.57
2022-09-11T01:35:38.247Z,42.30
2022-09-11T01:38:16.164Z,39.47
2022-09-11T01:41:09.595Z,39.23
2022-09-11T01:43:51.393Z,39.13
2022-09-11T01:46:23.053Z,41.28
2022-09-11T01:49:03.426Z,37.83
2022-09-11T01:51:34.220Z,37.20
2022-09-11T01:54:03.472Z,23.27
2022-09-11T01:56:37.815Z,17.58
2022-09-11T01:59:10.855Z,20.03
2022-09-11T02:01:43.101Z,30.77
2022-09-11T02:04:24.484Z,28.80
2022-09-11T02:06:59.722Z,25.00
2022-09-11T02:09:33.526Z,25.57
2022-09-11T02:12:04.235Z,25.07
2022-09-11T02:14:40.677Z,48.07
2022-09-11T02:17:24.700Z,36.53
2022-09-11T02:19:57.545Z,36.17
2022-09-11T02:22:25.209Z,34.53
2022-09-11T02:24:52.504Z,34.23
2022-09-11T02:27:25.812Z,36.13
2022-09-11T02:29:54.223Z,32.37
2022-09-11T02:32:22.909Z,31.53
2022-09-11T02:34:51.352Z,35.27
2022-09-11T02:37:27.073Z,32.63
2022-09-11T02:40:18.021Z,42.07
2022-09-11T02:43:09.846Z,48.80
2022-09-11T02:45:54.360Z,36.07
2022-09-11T02:48:56.215Z,54.13
2022-09-11T02:51:46.473Z,57.67
2022-09-11T02:54:38.927Z,64.57
2022-09-11T02:57:24.403Z,67.00
2022-09-11T03:00:04.693Z,71.20
2022-09-11T03:02:37.471Z,61.90
2022-09-11T03:05:06.361Z,62.97
2022-09-11T03:07:33.580Z,61.60
2022-09-11T03:10:00.573Z,56.83
2022-09-11T03:12:28.695Z,49.30
2022-09-11T03:14:57.039Z,65.83
2022-09-11T03:17:25.419Z,53.60
2022-09-11T03:19:52.440Z,60.57
2022-09-11T03:22:19.641Z,69.70
2022-09-11T03:24:46.648Z,76.07
2022-09-11T03:27:13.865Z,71.73
2022-09-11T03:29:40.916Z,77.23
2022-09-11T03:32:07.811Z,73.13
2022-09-11T03:34:34.707Z,67.33
2022-09-11T03:37:02.355Z,77.30
2022-09-11T03:39:29.292Z,77.50
2022-09-11T03:41:56.175Z,70.77
2022-09-11T03:44:23.197Z,79.67
2022-09-11T03:46:50.079Z,74.33
2022-09-11T03:49:17.168Z,75.93
2022-09-11T03:51:44.108Z,78.53
2022-09-11T03:54:11.231Z,79.83
2022-09-11T03:56:38.105Z,74.97
2022-09-11T03:59:05.227Z,75.40
2022-09-11T04:01:32.601Z,72.23
2022-09-11T04:03:59.476Z,74.37
2022-09-11T04:06:27.851Z,65.73
2022-09-11T04:08:54.791Z,80.73
2022-09-11T04:11:22.563Z,76.87
2022-09-11T04:13:49.473Z,79.07
2022-09-11T04:16:19.405Z,79.37
2022-09-11T04:18:47.343Z,75.17
2022-09-11T04:21:17.930Z,80.57
2022-09-11T04:23:45.709Z,70.07
2022-09-11T04:26:19.440Z,74.53
2022-09-11T04:28:46.969Z,69.23
2022-09-11T04:31:17.029Z,71.10
2022-09-11T04:33:45.449Z,70.97
2022-09-11T04:36:19.641Z,65.93
2022-09-11T04:38:47.842Z,70.50
2022-09-11T04:41:16.348Z,64.37
2022-09-11T04:43:43.641Z,73.53
2022-09-11T04:46:14.502Z,77.53
2022-09-11T04:48:51.651Z,73.97
2022-09-11T04:51:29.194Z,74.67
2022-09-11T04:53:57.916Z,81.43
2022-09-11T04:56:29.133Z,70.57
2022-09-11T04:59:01.021Z,68.63
2022-09-11T05:01:31.695Z,76.07
2022-09-11T05:04:00.511Z,74.97
2022-09-11T05:06:30.286Z,77.13
2022-09-11T05:09:05.052Z,69.90
2022-09-11T05:11:32.379Z,66.67
2022-09-11T05:13:59.509Z,64.57
2022-09-11T05:16:28.836Z,61.13
2022-09-11T05:18:57.751Z,59.50
2022-09-11T05:21:26.651Z,49.50
2022-09-11T05:23:57.931Z,50.57
2022-09-11T05:26:32.588Z,50.50
2022-09-11T05:29:07.495Z,52.17
2022-09-11T05:31:34.443Z,45.20
2022-09-11T05:34:03.211Z,47.37
2022-09-11T05:36:34.239Z,53.83
2022-09-11T05:39:01.306Z,48.63
2022-09-11T05:41:28.369Z,46.40
2022-09-11T05:43:55.302Z,47.23
2022-09-11T05:46:22.761Z,46.60
2022-09-11T05:48:49.696Z,45.23
2022-09-11T05:51:21.812Z,52.33
2022-09-11T05:53:53.679Z,51.33
2022-09-11T05:56:23.862Z,59.60
2022-09-11T05:58:51.944Z,57.57
2022-09-11T06:01:22.585Z,54.27
2022-09-11T06:03:50.728Z,56.30
2022-09-11T06:06:21.213Z,54.13
2022-09-11T06:08:50.157Z,47.90
2022-09-11T06:11:19.181Z,46.17
2022-09-11T06:13:47.409Z,38.90
2022-09-11T06:16:19.065Z,40.57
2022-09-11T06:18:50.614Z,46.43
2022-09-11T06:21:26.851Z,47.80
2022-09-11T06:23:54.291Z,48.07
2022-09-11T06:26:25.100Z,50.53
2022-09-11T06:28:54.417Z,54.77
2022-09-11T06:31:24.340Z,56.23
2022-09-11T06:33:51.580Z,57.63
2022-09-11T06:36:23.093Z,56.33
2022-09-11T06:38:58.059Z,55.10
2022-09-11T06:41:27.070Z,62.37
2022-09-11T06:43:54.095Z,62.43
2022-09-11T06:46:24.661Z,62.50
2022-09-11T06:48:52.721Z,59.20
2022-09-11T06:51:22.958Z,63.57
2022-09-11T06:53:56.235Z,68.53
2022-09-11T06:56:23.180Z,64.85
2022-09-11T06:58:50.402Z,67.53
2022-09-11T07:01:19.765Z,69.32
2022-09-11T07:03:53.236Z,76.00
2022-09-11T07:06:26.730Z,72.05
2022-09-11T07:09:01.633Z,71.32
2022-09-11T07:11:34.393Z,68.78
2022-09-11T07:14:06.491Z,65.60
2022-09-11T07:16:33.906Z,78.90
2022-09-11T07:19:01.021Z,87.07
2022-09-11T07:21:28.596Z,78.10
2022-09-11T07:23:58.694Z,65.50
2022-09-11T07:26:28.617Z,59.33
2022-09-11T07:28:57.524Z,46.30
2022-09-11T07:31:31.147Z,44.28
2022-09-11T07:33:58.111Z,39.72
2022-09-11T07:36:30.144Z,35.90
2022-09-11T07:38:58.707Z,39.58
2022-09-11T07:41:28.007Z,36.40
2022-09-11T07:43:57.788Z,36.10
2022-09-11T07:46:25.850Z,37.17
2022-09-11T07:48:55.256Z,36.35
2022-09-11T07:51:22.241Z,38.72
2022-09-11T07:53:54.348Z,34.90
2022-09-11T07:56:24.618Z,33.60
2022-09-11T07:58:54.906Z,34.70
2022-09-11T08:01:30.822Z,34.92
2022-09-11T08:04:09.835Z,33.45
2022-09-11T08:06:38.987Z,34.55
2022-09-11T08:09:17.556Z,34.78
2022-09-11T08:11:48.982Z,38.95
2022-09-11T08:14:17.641Z,39.83
2022-09-11T08:16:45.119Z,36.13
2022-09-11T08:19:22.197Z,31.17
2022-09-11T08:21:50.497Z,36.83
2022-09-11T08:24:18.492Z,35.70
2022-09-11T08:26:48.720Z,34.75
2022-09-11T08:29:16.485Z,34.60
2022-09-11T08:31:43.905Z,38.88
2022-09-11T08:34:10.933Z,33.83
2022-09-11T08:36:37.880Z,33.90
2022-09-11T08:39:05.419Z,36.90
2022-09-11T08:42:17.079Z,32.80
2022-09-11T08:44:59.086Z,26.50
2022-09-11T08:47:29.341Z,28.67
2022-09-11T08:50:20.412Z,33.00
2022-09-11T08:52:48.842Z,27.67
2022-09-11T08:55:26.671Z,23.52
2022-09-11T08:58:22.558Z,24.45
2022-09-11T09:01:23.915Z,29.00
2022-09-11T09:04:41.385Z,28.55
2022-09-11T09:07:38.600Z,24.70
2022-09-11T09:10:44.993Z,28.85
2022-09-11T09:13:45.962Z,23.90
2022-09-11T09:16:32.272Z,24.65
2022-09-11T09:19:10.486Z,23.45
2022-09-11T09:21:55.377Z,19.05
2022-09-11T09:24:23.219Z,23.10
2022-09-11T09:26:56.435Z,19.60
2022-09-11T09:29:36.086Z,14.07
2022-09-11T09:32:13.467Z,12.65
2022-09-11T09:34:43.593Z,14.27
2022-09-11T09:37:22.191Z,13.40
2022-09-11T09:39:50.403Z,16.33
2022-09-11T09:42:49.621Z,10.63
2022-09-11T09:45:37.461Z,12.40
2022-09-11T09:48:07.264Z,10.25
2022-09-11T09:50:41.789Z,10.07
2022-09-11T09:53:45.439Z,9.98
2022-09-11T09:56:18.315Z,7.85
2022-09-11T09:58:57.337Z,11.02
2022-09-11T10:01:45.419Z,8.93
2022-09-11T10:04:27.849Z,10.85
2022-09-11T10:07:11.382Z,11.50
2022-09-11T10:09:51.543Z,10.73
2022-09-11T10:12:27.812Z,7.35
2022-09-11T10:15:02.910Z,8.75
2022-09-11T10:17:30.273Z,9.25
2022-09-11T10:20:18.611Z,7.38
2022-09-11T10:22:46.674Z,9.95
2022-09-11T10:25:27.868Z,8.88
2022-09-11T10:28:02.960Z,4.32
2022-09-11T10:30:55.635Z,4.55
2022-09-11T10:33:32.039Z,6.25
2022-09-11T10:36:01.167Z,5.35
2022-09-11T10:38:45.977Z,5.18
2022-09-11T10:41:13.187Z,4.25
2022-09-11T10:44:05.594Z,5.63
2022-09-11T10:46:40.661Z,6.60
2022-09-11T10:49:21.816Z,6.95
2022-09-11T10:52:19.826Z,5.88
2022-09-11T10:55:04.409Z,6.40
2022-09-11T10:57:44.381Z,18.38
2022-09-11T11:00:21.106Z,7.93
2022-09-11T11:03:12.536Z,7.30
2022-09-11T11:06:13.505Z,7.88
2022-09-11T11:09:01.796Z,3.80
2022-09-11T11:12:00.990Z,4.28
2022-09-11T11:14:37.841Z,5.55
2022-09-11T11:17:36.856Z,4.88
2022-09-11T11:20:35.521Z,7.82
2022-09-11T11:23:29.720Z,5.90
2022-09-11T11:26:42.333Z,5.80
2022-09-11T11:29:37.449Z,6.78
2022-09-11T11:33:13.195Z,4.32
2022-09-11T11:36:18.746Z,5.72
2022-09-11T11:39:16.869Z,3.90
2022-09-11T11:41:55.440Z,3.78
2022-09-11T11:44:33.974Z,3.60
2022-09-11T11:47:04.430Z,4.05
2022-09-11T11:49:45.574Z,2.63
2022-09-11T11:52:49.662Z,4.95
2022-09-11T11:55:25.610Z,4.10
2022-09-11T11:58:22.001Z,2.97
2022-09-11T12:00:59.901Z,4.82
2022-09-11T12:03:43.177Z,7.22
2022-09-11T12:06:10.625Z,2.58
2022-09-11T12:08:45.654Z,5.10
2022-09-11T12:11:17.253Z,6.18
2022-09-11T12:13:48.720Z,5.53
2022-09-11T12:16:35.198Z,5.80
2022-09-11T12:19:07.506Z,3.45
2022-09-11T12:21:38.756Z,9.63
2022-09-11T12:24:05.547Z,8.20
2022-09-11T12:26:32.636Z,6.53
2022-09-11T12:29:15.816Z,9.48
2022-09-11T12:32:02.873Z,8.90
2022-09-11T12:34:38.934Z,8.30
2022-09-11T12:37:20.304Z,10.43
2022-09-11T12:39:56.567Z,8.50
2022-09-11T12:42:23.424Z,8.65
2022-09-11T12:44:50.217Z,10.75
2022-09-11T12:47:23.372Z,9.30
2022-09-11T12:50:05.092Z,9.43
2022-09-11T12:52:47.848Z,5.85
2022-09-11T12:55:33.181Z,7.35
2022-09-11T12:58:07.651Z,4.82
2022-09-11T13:00:44.325Z,6.28
2022-09-11T13:03:27.950Z,6.55
2022-09-11T13:06:00.992Z,6.90
2022-09-11T13:08:33.654Z,8.90
2022-09-11T13:11:43.539Z,6.20
2022-09-11T13:14:28.591Z,6.57
2022-09-11T13:17:01.388Z,13.68
2022-09-11T13:19:37.397Z,7.60
2022-09-11T13:22:23.748Z,6.95
2022-09-11T13:24:51.545Z,6.53
2022-09-11T13:27:28.287Z,6.40
2022-09-11T13:29:59.178Z,6.53
2022-09-11T13:32:26.174Z,7.72
2022-09-11T13:35:01.838Z,8.60
2022-09-11T13:37:38.598Z,6.13
2022-09-11T13:40:11.308Z,6.85
2022-09-11T13:42:40.667Z,9.02
2022-09-11T13:45:11.451Z,4.50
2022-09-11T13:47:41.216Z,5.38
2022-09-11T13:50:15.104Z,8.45
2022-09-11T13:52:45.121Z,5.28
2022-09-11T13:55:20.633Z,4.82
2022-09-11T13:58:03.501Z,9.45
2022-09-11T14:00:46.729Z,4.93
2022-09-11T14:03:28.180Z,6.13
2022-09-11T14:06:09.220Z,6.28
2022-09-11T14:08:40.354Z,4.28
2022-09-11T14:11:13.315Z,8.52
2022-09-11T14:13:56.679Z,5.70
2022-09-11T14:16:34.841Z,4.03
2022-09-11T14:19:13.225Z,3.97
2022-09-11T14:21:44.347Z,5.00
2022-09-11T14:24:37.264Z,5.88
2022-09-11T14:27:32.807Z,7.18
2022-09-11T14:30:00.560Z,4.13
2022-09-11T14:32:39.073Z,5.70
2022-09-11T14:35:09.747Z,4.93
2022-09-11T14:37:45.852Z,6.00
2022-09-11T14:40:18.868Z,4.85
2022-09-11T14:42:47.205Z,3.58
2022-09-11T14:45:24.701Z,3.60
2022-09-11T14:47:52.223Z,4.90
2022-09-11T14:50:19.319Z,2.53
2022-09-11T14:52:46.836Z,3.80
2022-09-11T14:55:19.671Z,4.07
2022-09-11T14:57:47.443Z,4.78
2022-09-11T15:00:16.976Z,5.68
2022-09-11T15:02:44.197Z,4.60
2022-09-11T15:05:22.910Z,4.95
2022-09-11T15:07:49.980Z,4.07
2022-09-11T15:10:16.923Z,3.67
2022-09-11T15:12:44.615Z,3.10
2022-09-11T15:15:11.970Z,7.03
2022-09-11T15:17:38.999Z,4.50
2022-09-11T15:20:09.115Z,5.03
2022-09-11T15:22:38.242Z,3.80
2022-09-11T15:25:06.294Z,2.58
2022-09-11T15:27:33.372Z,4.93
2022-09-11T15:30:00.679Z,2.88
2022-09-11T15:32:27.892Z,3.17
2022-09-11T15:34:55.127Z,2.72
2022-09-11T15:37:22.075Z,4.05
2022-09-11T15:39:50.927Z,3.95
2022-09-11T15:42:18.470Z,2.47
2022-09-11T15:44:46.218Z,4.60
2022-09-11T15:47:13.740Z,2.75
2022-09-11T15:49:44.477Z,5.20
2022-09-11T15:52:11.518Z,4.80
2022-09-11T15:54:38.629Z,3.58
2022-09-11T15:57:05.977Z,4.78
2022-09-11T15:59:33.448Z,2.67
2022-09-11T16:02:00.496Z,2.95
2022-09-11T16:04:31.673Z,4.35
2022-09-11T16:06:59.057Z,4.88
2022-09-11T16:09:29.032Z,6.43
2022-09-11T16:11:56.932Z,3.80
2022-09-11T16:14:32.102Z,4.80
2022-09-11T16:17:00.423Z,4.25
2022-09-11T16:19:29.012Z,5.50
2022-09-11T16:21:58.707Z,3.50
2022-09-11T16:24:28.656Z,4.18
2022-09-11T16:26:56.051Z,7.55
2022-09-11T16:29:49.402Z,6.28
2022-09-11T16:32:28.451Z,3.38
2022-09-11T16:34:57.561Z,8.48
2022-09-11T16:37:25.059Z,6.78
2022-09-11T16:39:52.606Z,3.55
2022-09-11T16:42:21.174Z,4.13
2022-09-11T16:44:49.830Z,4.53
2022-09-11T16:47:17.941Z,4.80
2022-09-11T16:52:32.716Z,4.57
2022-09-11T16:54:59.953Z,3.85
2022-09-11T16:57:29.398Z,4.70
2022-09-11T16:59:56.296Z,5.13
2022-09-11T17:02:23.427Z,4.88
2022-09-11T17:04:50.322Z,3.92
2022-09-11T17:07:18.057Z,4.03
2022-09-11T17:09:47.093Z,5.03
2022-09-11T17:12:17.785Z,2.78
2022-09-11T17:14:44.671Z,4.70
2022-09-11T17:17:11.606Z,5.63
2022-09-11T17:19:38.541Z,3.17
2022-09-11T17:22:05.443Z,6.13
2022-09-11T17:24:32.409Z,4.07
2022-09-11T17:26:59.271Z,3.42
2022-09-11T17:29:26.438Z,4.88
2022-09-11T17:32:05.340Z,5.10
2022-09-11T17:34:41.525Z,8.35
2022-09-11T17:37:10.019Z,10.35
2022-09-11T17:39:36.975Z,11.15
2022-09-11T17:42:04.118Z,6.88
2022-09-11T17:44:31.495Z,6.05
2022-09-11T17:47:02.250Z,8.35
2022-09-11T17:49:31.233Z,9.02
2022-09-11T17:51:58.560Z,3.72
2022-09-11T17:54:27.825Z,4.53
2022-09-11T17:56:55.735Z,6.82
2022-09-11T17:59:23.626Z,4.22
2022-09-11T18:01:51.170Z,6.20
2022-09-11T18:04:18.473Z,4.70
2022-09-11T18:06:45.420Z,4.43
2022-09-11T18:09:19.679Z,4.20
2022-09-11T18:11:50.003Z,4.03
2022-09-11T18:14:18.542Z,5.30
2022-09-11T18:16:47.818Z,5.38
2022-09-11T18:19:16.765Z,4.55
2022-09-11T18:21:48.023Z,6.10
2022-09-11T18:24:20.072Z,4.55
2022-09-11T18:26:51.049Z,6.80
2022-09-11T18:29:20.233Z,6.80
2022-09-11T18:31:51.895Z,8.00
2022-09-11T18:34:25.529Z,10.48
2022-09-11T18:36:52.871Z,9.52
2022-09-11T18:39:21.256Z,5.70
2022-09-11T18:41:50.143Z,6.50
2022-09-11T18:44:20.508Z,7.93
2022-09-11T18:46:48.338Z,11.73
2022-09-11T18:49:16.587Z,21.42
2022-09-11T18:51:43.973Z,9.60
2022-09-11T18:54:17.567Z,14.95
2022-09-11T18:56:45.503Z,13.57
2022-09-11T18:59:13.785Z,9.55
2022-09-11T19:01:41.297Z,9.35
2022-09-11T19:04:12.953Z,10.68
2022-09-11T19:06:40.540Z,9.43
2022-09-11T19:09:10.488Z,11.02
2022-09-11T19:11:38.713Z,9.10
2022-09-11T19:14:09.569Z,13.75
2022-09-11T19:16:37.928Z,9.85
2022-09-11T19:19:07.301Z,9.63
2022-09-11T19:21:35.009Z,9.93
2022-09-11T19:24:02.669Z,8.55
2022-09-11T19:26:43.499Z,10.52
2022-09-11T19:29:13.315Z,16.17
2022-09-11T19:31:41.071Z,14.25
2022-09-11T19:34:13.579Z,13.82
2022-09-11T19:36:41.181Z,14.50
2022-09-11T19:39:08.155Z,11.80
2022-09-11T19:41:38.645Z,12.75
2022-09-11T19:44:07.916Z,13.10
2022-09-11T19:46:35.915Z,11.00
2022-09-11T19:49:06.311Z,12.27
2022-09-11T19:51:37.014Z,9.40
2022-09-11T19:54:05.520Z,9.80
2022-09-11T19:56:35.798Z,9.73
2022-09-11T19:59:03.533Z,12.40
2022-09-11T20:01:30.944Z,9.45
2022-09-11T20:04:00.482Z,12.43
2022-09-11T20:06:31.726Z,9.57
2022-09-11T20:09:26.896Z,9.90
2022-09-11T20:11:46.951Z,11.90
2022-09-11T20:14:13.949Z,12.07
2022-09-11T20:16:41.715Z,10.80
2022-09-11T20:19:10.033Z,15.88
2022-09-11T20:21:37.679Z,16.80
2022-09-11T20:24:06.474Z,13.02
2022-09-11T20:26:36.769Z,17.48
2022-09-11T20:29:08.032Z,11.35
2022-09-11T20:31:47.463Z,18.70
2022-09-11T20:34:17.561Z,13.23
2022-09-11T20:36:44.931Z,12.65
2022-09-11T20:39:13.702Z,14.77
2022-09-11T20:41:40.981Z,12.45
2022-09-11T20:44:08.221Z,12.70
2022-09-11T20:46:35.188Z,16.77
2022-09-11T20:49:03.287Z,15.15
2022-09-11T20:51:30.946Z,12.70
2022-09-11T20:53:57.865Z,15.48
2022-09-11T20:56:24.826Z,15.35
2022-09-11T20:58:52.548Z,15.63
2022-09-11T21:01:23.096Z,13.50
2022-09-11T21:03:56.537Z,17.75
2022-09-11T21:06:27.273Z,15.43
2022-09-11T21:08:57.088Z,16.48
2022-09-11T21:11:29.860Z,15.70
2022-09-11T21:13:57.501Z,14.70
2022-09-11T21:16:24.621Z,18.27
2022-09-11T21:18:55.103Z,15.50
2022-09-11T21:21:23.608Z,15.38
2022-09-11T21:23:57.050Z,12.32
2022-09-11T21:26:26.232Z,18.25
2022-09-11T21:28:53.179Z,16.10
2022-09-11T21:31:20.115Z,13.43
2022-09-11T21:33:47.245Z,21.70
2022-09-11T21:36:14.173Z,13.60
2022-09-11T21:38:41.178Z,14.55
2022-09-11T21:41:10.409Z,10.73
2022-09-11T21:43:38.206Z,13.73
2022-09-11T21:46:07.591Z,13.50
2022-09-11T21:48:37.040Z,16.05
2022-09-11T21:51:13.110Z,17.55
2022-09-11T21:53:45.202Z,16.85
2022-09-11T21:56:26.719Z,13.98
2022-09-11T21:58:54.012Z,13.57
2022-09-11T22:01:23.254Z,16.23
2022-09-11T22:03:51.299Z,16.00
2022-09-11T22:06:20.352Z,15.95
2022-09-11T22:08:47.465Z,14.55
2022-09-11T22:11:15.584Z,17.23
2022-09-11T22:13:43.173Z,17.92
2022-09-11T22:16:15.303Z,18.15
2022-09-11T22:18:42.783Z,15.32
2022-09-11T22:21:10.789Z,14.05
2022-09-11T22:23:37.921Z,14.07
2022-09-11T22:26:11.989Z,16.65
2022-09-11T22:28:39.715Z,19.20
2022-09-11T22:31:13.541Z,17.55
2022-09-11T22:33:41.691Z,18.05
2022-09-11T22:36:19.886Z,19.63
2022-09-11T22:38:48.603Z,23.13
2022-09-11T22:41:18.665Z,22.73
2022-09-11T22:43:47.534Z,22.27
2022-09-11T22:46:14.788Z,24.90
2022-09-11T22:48:42.294Z,22.00
2022-09-11T22:51:10.013Z,19.65
2022-09-11T22:53:39.481Z,20.10
2022-09-11T22:56:07.369Z,20.08
2022-09-11T22:58:34.376Z,19.20
2022-09-11T23:01:03.902Z,19.70
2022-09-11T23:03:31.239Z,19.35
2022-09-11T23:06:19.767Z,18.42
2022-09-11T23:08:48.143Z,18.73
2022-09-11T23:11:19.915Z,21.60
2022-09-11T23:13:48.570Z,20.02
2022-09-11T23:16:23.428Z,20.17
2022-09-11T23:18:59.893Z,20.33
2022-09-11T23:21:28.521Z,20.00
2022-09-11T23:23:57.954Z,19.08
2022-09-11T23:26:27.064Z,22.02
2022-09-11T23:28:55.806Z,21.85
2022-09-11T23:31:26.602Z,17.00
2022-09-11T23:33:57.015Z,21.63
2022-09-11T23:36:25.171Z,27.95
2022-09-11T23:38:52.889Z,21.27
2022-09-11T23:41:20.436Z,20.30
2022-09-11T23:43:47.778Z,24.10
2022-09-11T23:46:14.930Z,25.42
2022-09-11T23:48:42.000Z,22.90
2022-09-11T23:51:10.402Z,20.77
2022-09-11T23:53:45.028Z,18.08
2022-09-11T23:56:14.518Z,21.65
2022-09-11T23:58:42.416Z,16.95
